createdAt,value
2023-03-04T00:02:28.739Z,40.90
2023-03-04T00:05:31.770Z,51.67
2023-03-04T00:08:35.334Z,55.10
2023-03-04T00:11:38.417Z,47.27
2023-03-04T00:14:41.855Z,49.10
2023-03-04T00:17:46.812Z,46.50
2023-03-04T00:20:50.867Z,44.87
2023-03-04T00:23:53.941Z,47.33
2023-03-04T00:26:57.324Z,51.97
2023-03-04T00:30:00.340Z,52.67
2023-03-04T00:33:05.038Z,51.73
2023-03-04T00:36:09.398Z,51.17
2023-03-04T00:39:12.723Z,51.77
2023-03-04T00:42:15.727Z,59.23
2023-03-04T00:45:18.980Z,51.87
2023-03-04T00:48:24.155Z,51.93
2023-03-04T00:51:27.816Z,51.63
2023-03-04T00:54:30.844Z,45.27
2023-03-04T00:57:33.857Z,49.33
2023-03-04T01:00:37.023Z,41.87
2023-03-04T01:03:42.830Z,52.33
2023-03-04T01:06:46.861Z,47.70
2023-03-04T01:09:49.926Z,46.87
2023-03-04T01:12:53.040Z,51.67
2023-03-04T01:15:56.468Z,42.53
2023-03-04T01:19:00.854Z,46.07
2023-03-04T01:22:03.855Z,43.37
2023-03-04T01:25:09.162Z,45.67
2023-03-04T01:28:12.565Z,38.97
2023-03-04T01:31:17.587Z,44.20
2023-03-04T01:34:22.285Z,43.83
2023-03-04T01:37:25.502Z,39.83
2023-03-04T01:40:29.100Z,36.10
2023-03-04T01:43:33.730Z,34.67
2023-03-04T01:46:37.017Z,40.63
2023-03-04T01:49:41.621Z,35.83
2023-03-04T01:52:44.943Z,30.97
2023-03-04T01:55:48.424Z,33.83
2023-03-04T01:59:11.509Z,31.97
2023-03-04T02:02:15.142Z,32.50
2023-03-04T02:05:20.545Z,37.87
2023-03-04T02:08:26.093Z,38.20
2023-03-04T02:11:29.604Z,29.43
2023-03-04T02:14:32.859Z,37.90
2023-03-04T02:17:36.560Z,32.73
2023-03-04T02:20:52.263Z,36.00
2023-03-04T02:24:05.097Z,34.87
2023-03-04T02:27:10.424Z,33.40
2023-03-04T02:30:18.373Z,24.00
2023-03-04T02:33:21.653Z,31.80
2023-03-04T02:36:26.171Z,34.40
2023-03-04T02:39:34.055Z,33.20
2023-03-04T02:42:38.517Z,32.50
2023-03-04T02:45:46.132Z,34.23
2023-03-04T02:48:49.761Z,26.30
2023-03-04T02:51:54.000Z,30.93
2023-03-04T02:54:57.415Z,25.37
2023-03-04T02:58:03.422Z,24.77
2023-03-04T03:01:06.981Z,27.00
2023-03-04T03:04:10.190Z,26.70
2023-03-04T03:07:13.482Z,24.23
2023-03-04T03:10:16.797Z,26.73
2023-03-04T03:13:21.430Z,22.43
2023-03-04T03:16:25.046Z,28.03
2023-03-04T03:19:29.555Z,24.30
2023-03-04T03:22:32.872Z,24.07
2023-03-04T03:25:35.923Z,24.53
2023-03-04T03:28:40.960Z,27.40
2023-03-04T03:31:44.033Z,35.90
2023-03-04T03:34:47.909Z,31.53
2023-03-04T03:37:50.938Z,28.70
2023-03-04T03:40:54.023Z,30.63
2023-03-04T03:43:58.310Z,24.53
2023-03-04T03:47:01.378Z,33.53
2023-03-04T03:50:05.884Z,22.33
2023-03-04T03:53:09.070Z,30.03
2023-03-04T03:56:13.200Z,27.53
2023-03-04T03:59:17.544Z,32.00
2023-03-04T04:02:20.658Z,31.47
2023-03-04T04:05:23.818Z,21.90
2023-03-04T04:08:26.857Z,26.43
2023-03-04T04:11:30.133Z,21.73
2023-03-04T04:14:35.289Z,27.37
2023-03-04T04:17:38.555Z,26.03
2023-03-04T04:20:41.825Z,23.97
2023-03-04T04:23:44.827Z,20.20
2023-03-04T04:26:47.889Z,20.07
2023-03-04T04:29:52.364Z,19.27
2023-03-04T04:32:58.421Z,23.93
2023-03-04T04:36:03.618Z,22.43
2023-03-04T04:39:06.800Z,21.83
2023-03-04T04:42:11.332Z,19.50
2023-03-04T04:45:15.875Z,20.23
2023-03-04T04:48:18.973Z,21.63
2023-03-04T04:51:21.945Z,22.50
2023-03-04T04:54:25.595Z,25.33
2023-03-04T04:57:28.597Z,22.43
2023-03-04T05:00:32.965Z,23.70
2023-03-04T05:03:38.367Z,21.63
2023-03-04T05:06:41.721Z,19.63
2023-03-04T05:09:45.900Z,19.20
2023-03-04T05:12:49.820Z,21.27
2023-03-04T05:15:55.294Z,23.43
2023-03-04T05:18:58.363Z,21.57
2023-03-04T05:22:01.400Z,23.73
2023-03-04T05:25:05.571Z,14.73
2023-03-04T05:28:12.383Z,20.47
2023-03-04T05:31:20.183Z,26.13
2023-03-04T05:34:23.224Z,17.87
2023-03-04T05:37:26.228Z,17.53
2023-03-04T05:40:35.421Z,18.47
2023-03-04T05:43:42.698Z,18.47
2023-03-04T05:46:47.131Z,15.50
2023-03-04T05:49:50.452Z,19.80
2023-03-04T05:52:54.163Z,19.83
2023-03-04T05:55:59.261Z,16.63
2023-03-04T05:59:02.696Z,14.53
2023-03-04T06:02:07.172Z,18.70
2023-03-04T06:05:14.943Z,20.07
2023-03-04T06:08:18.139Z,20.93
2023-03-04T06:11:21.759Z,18.97
2023-03-04T06:14:25.985Z,20.27
2023-03-04T06:17:33.939Z,11.77
2023-03-04T06:20:37.629Z,16.67
2023-03-04T06:23:41.996Z,18.10
2023-03-04T06:26:45.162Z,18.90
2023-03-04T06:29:48.192Z,15.93
2023-03-04T06:32:52.509Z,19.63
2023-03-04T06:35:57.515Z,16.83
2023-03-04T06:39:00.656Z,19.90
2023-03-04T06:42:04.221Z,17.27
2023-03-04T06:45:09.222Z,18.30
2023-03-04T06:48:14.875Z,14.97
2023-03-04T06:51:18.142Z,20.47
2023-03-04T06:54:21.561Z,22.00
2023-03-04T06:57:24.621Z,15.77
2023-03-04T07:00:27.849Z,19.70
2023-03-04T07:03:32.184Z,23.93
2023-03-04T07:06:35.207Z,14.67
2023-03-04T07:09:38.751Z,19.03
2023-03-04T07:12:41.910Z,15.10
2023-03-04T07:15:44.892Z,18.10
2023-03-04T07:18:49.499Z,22.47
2023-03-04T07:21:52.546Z,16.00
2023-03-04T07:24:55.716Z,15.70
2023-03-04T07:27:58.755Z,13.73
2023-03-04T07:31:12.240Z,16.93
2023-03-04T07:34:16.906Z,16.53
2023-03-04T07:37:19.950Z,21.77
2023-03-04T07:40:23.814Z,15.07
2023-03-04T07:43:27.147Z,16.27
2023-03-04T07:46:30.540Z,14.30
2023-03-04T07:49:34.838Z,13.87
2023-03-04T07:52:39.778Z,13.03
2023-03-04T07:55:42.779Z,12.13
2023-03-04T07:58:46.420Z,12.33
2023-03-04T08:01:49.624Z,11.37
2023-03-04T08:04:53.954Z,12.43
2023-03-04T08:07:57.993Z,10.70
2023-03-04T08:11:01.243Z,11.67
2023-03-04T08:14:04.947Z,16.53
2023-03-04T08:17:08.632Z,10.07
2023-03-04T08:20:14.365Z,9.90
2023-03-04T08:23:17.416Z,12.37
2023-03-04T08:26:24.137Z,10.33
2023-03-04T08:29:28.230Z,12.23
2023-03-04T08:32:31.643Z,7.47
2023-03-04T08:35:39.433Z,7.73
2023-03-04T08:38:43.158Z,10.80
2023-03-04T08:41:47.910Z,8.57
2023-03-04T08:44:51.107Z,10.90
2023-03-04T08:47:54.080Z,7.43
2023-03-04T08:50:58.643Z,13.23
2023-03-04T08:54:02.085Z,9.37
2023-03-04T08:57:07.752Z,7.50
2023-03-04T09:00:12.930Z,8.40
2023-03-04T09:03:18.960Z,8.17
2023-03-04T09:06:23.520Z,6.07
2023-03-04T09:09:26.811Z,14.50
2023-03-04T09:12:29.828Z,11.30
2023-03-04T09:15:35.604Z,10.67
2023-03-04T09:18:39.732Z,5.73
2023-03-04T09:21:44.074Z,8.67
2023-03-04T09:24:47.068Z,10.73
2023-03-04T09:27:50.114Z,7.87
2023-03-04T09:30:53.132Z,12.90
2023-03-04T09:34:00.579Z,11.40
2023-03-04T09:37:05.063Z,14.47
2023-03-04T09:40:12.501Z,9.53
2023-03-04T09:43:23.730Z,8.50
2023-03-04T09:46:35.585Z,11.90
2023-03-04T09:49:42.282Z,11.33
2023-03-04T09:53:07.665Z,8.00
2023-03-04T09:56:13.040Z,11.63
2023-03-04T09:59:25.541Z,14.93
2023-03-04T10:02:45.810Z,7.43
2023-03-04T10:05:56.304Z,14.60
2023-03-04T10:09:04.254Z,10.83
2023-03-04T10:12:13.647Z,11.37
2023-03-04T10:15:35.547Z,10.27
2023-03-04T10:18:42.317Z,9.63
2023-03-04T10:21:48.902Z,11.43
2023-03-04T10:24:54.893Z,12.17
2023-03-04T10:28:02.529Z,14.77
2023-03-04T10:31:13.323Z,15.07
2023-03-04T10:34:20.065Z,12.20
2023-03-04T10:37:23.427Z,7.87
2023-03-04T10:40:27.796Z,7.50
2023-03-04T10:43:32.081Z,18.60
2023-03-04T10:46:39.445Z,11.90
2023-03-04T10:49:53.285Z,11.73
2023-03-04T10:52:57.664Z,16.50
2023-03-04T10:56:03.110Z,14.20
2023-03-04T10:59:31.994Z,15.47
2023-03-04T11:02:37.172Z,10.77
2023-03-04T11:05:40.280Z,14.00
2023-03-04T11:08:43.584Z,11.63
2023-03-04T11:11:48.228Z,16.73
2023-03-04T11:14:53.192Z,17.57
2023-03-04T11:18:00.635Z,14.77
2023-03-04T11:21:03.859Z,16.07
2023-03-04T11:24:28.174Z,19.93
2023-03-04T11:27:42.362Z,22.20
2023-03-04T11:30:51.464Z,15.30
2023-03-04T11:33:59.254Z,15.47
2023-03-04T11:37:07.643Z,17.17
2023-03-04T11:40:15.326Z,17.57
2023-03-04T11:43:24.644Z,21.80
2023-03-04T11:46:58.860Z,17.73
2023-03-04T11:50:23.749Z,19.27
2023-03-04T11:53:39.077Z,21.67
2023-03-04T11:56:48.893Z,25.50
2023-03-04T12:00:13.912Z,17.60
2023-03-04T12:03:35.762Z,20.53
2023-03-04T12:06:51.473Z,24.27
2023-03-04T12:10:05.684Z,19.23
2023-03-04T12:13:32.505Z,17.53
2023-03-04T12:17:04.940Z,20.83
2023-03-04T12:20:37.876Z,20.83
2023-03-04T12:24:19.207Z,18.97
2023-03-04T12:27:29.237Z,26.20
2023-03-04T12:31:01.423Z,19.60
2023-03-04T12:34:31.800Z,18.53
2023-03-04T12:37:50.180Z,18.73
2023-03-04T12:41:04.228Z,16.37
2023-03-04T12:44:19.325Z,15.53
2023-03-04T12:47:33.195Z,14.40
2023-03-04T12:50:52.386Z,18.17
2023-03-04T12:54:09.483Z,17.47
2023-03-04T12:57:16.335Z,19.57
2023-03-04T13:00:33.964Z,14.27
2023-03-04T13:03:45.757Z,12.23
2023-03-04T13:07:00.912Z,21.13
2023-03-04T13:10:12.176Z,23.73
2023-03-04T13:13:39.944Z,14.73
2023-03-04T13:16:45.949Z,19.43
2023-03-04T13:19:52.996Z,17.10
2023-03-04T13:22:59.459Z,13.40
2023-03-04T13:26:37.057Z,19.80
2023-03-04T13:29:42.341Z,14.73
2023-03-04T13:32:45.304Z,19.30
2023-03-04T13:36:01.957Z,18.30
2023-03-04T13:39:29.690Z,14.40
2023-03-04T13:42:42.373Z,21.27
2023-03-04T13:45:47.042Z,14.17
2023-03-04T13:49:04.236Z,14.83
2023-03-04T13:52:40.902Z,13.27
2023-03-04T13:55:46.697Z,12.40
2023-03-04T13:58:52.405Z,20.80
2023-03-04T14:02:02.272Z,15.90
2023-03-04T14:05:06.733Z,24.70
2023-03-04T14:08:19.943Z,21.20
2023-03-04T14:11:31.513Z,16.17
2023-03-04T14:14:43.609Z,19.30
2023-03-04T14:17:51.275Z,19.20
2023-03-04T14:20:58.945Z,21.77
2023-03-04T14:24:07.591Z,14.63
2023-03-04T14:27:15.123Z,15.20
2023-03-04T14:30:40.724Z,18.23
2023-03-04T14:33:50.538Z,21.27
2023-03-04T14:36:54.123Z,25.17
2023-03-04T14:39:59.627Z,19.10
2023-03-04T14:43:07.625Z,22.17
2023-03-04T14:46:16.079Z,21.83
2023-03-04T14:49:19.178Z,17.17
2023-03-04T14:52:35.300Z,16.50
2023-03-04T14:55:38.300Z,18.60
2023-03-04T14:58:54.831Z,29.53
2023-03-04T15:02:22.408Z,17.63
2023-03-04T15:05:28.744Z,20.30
2023-03-04T15:08:37.072Z,19.73
2023-03-04T15:11:48.690Z,18.10
2023-03-04T15:14:56.479Z,21.47
2023-03-04T15:18:00.818Z,15.63
2023-03-04T15:21:07.218Z,11.47
2023-03-04T15:24:13.596Z,17.37
2023-03-04T15:27:17.087Z,13.07
2023-03-04T15:30:27.476Z,14.53
2023-03-04T15:33:30.550Z,19.30
2023-03-04T15:36:33.914Z,17.83
2023-03-04T15:39:37.026Z,17.50
2023-03-04T15:42:40.357Z,16.17
2023-03-04T15:45:45.177Z,14.90
2023-03-04T15:48:49.318Z,15.17
2023-03-04T15:51:53.597Z,15.50
2023-03-04T15:54:56.734Z,16.03
2023-03-04T15:58:01.177Z,18.83
2023-03-04T16:01:06.598Z,16.63
2023-03-04T16:04:12.928Z,19.67
2023-03-04T16:07:19.854Z,15.87
2023-03-04T16:10:28.063Z,26.97
2023-03-04T16:13:31.327Z,19.87
2023-03-04T16:16:35.734Z,21.77
2023-03-04T16:19:38.818Z,23.57
2023-03-04T16:22:43.947Z,19.73
2023-03-04T16:25:49.528Z,19.77
2023-03-04T16:28:53.800Z,13.77
2023-03-04T16:31:58.233Z,14.83
2023-03-04T16:35:02.283Z,14.90
2023-03-04T16:38:07.291Z,17.33
2023-03-04T16:41:15.157Z,22.63
2023-03-04T16:44:18.226Z,20.17
2023-03-04T16:47:23.337Z,14.83
2023-03-04T16:50:30.198Z,17.60
2023-03-04T16:53:37.740Z,20.17
2023-03-04T16:56:40.812Z,16.17
2023-03-04T16:59:45.790Z,19.60
2023-03-04T17:02:56.949Z,16.33
2023-03-04T17:06:00.226Z,17.13
2023-03-04T17:09:03.288Z,22.83
2023-03-04T17:12:08.000Z,13.20
2023-03-04T17:15:13.280Z,13.43
2023-03-04T17:18:17.600Z,14.90
2023-03-04T17:21:24.236Z,10.73
2023-03-04T17:24:28.144Z,17.77
2023-03-04T17:27:31.779Z,13.23
2023-03-04T17:30:34.792Z,15.93
2023-03-04T17:33:39.549Z,21.43
2023-03-04T17:36:42.669Z,17.90
2023-03-04T17:39:45.695Z,11.93
2023-03-04T17:42:48.721Z,15.43
2023-03-04T17:45:51.723Z,21.10
2023-03-04T17:48:59.141Z,17.03
2023-03-04T17:52:04.390Z,14.73
2023-03-04T17:55:09.097Z,14.00
2023-03-04T17:58:13.030Z,10.23
2023-03-04T18:01:19.753Z,13.07
2023-03-04T18:04:24.694Z,17.27
2023-03-04T18:07:28.939Z,18.67
2023-03-04T18:10:32.722Z,17.73
2023-03-04T18:13:38.155Z,19.13
2023-03-04T18:16:42.054Z,20.60
2023-03-04T18:19:46.729Z,18.13
2023-03-04T18:22:49.768Z,18.27
2023-03-04T18:25:52.885Z,16.30
2023-03-04T18:28:57.428Z,12.23
2023-03-04T18:32:01.436Z,14.87
2023-03-04T18:35:07.439Z,18.07
2023-03-04T18:38:10.475Z,17.27
2023-03-04T18:41:15.521Z,14.97
2023-03-04T18:44:18.512Z,20.77
2023-03-04T18:47:22.481Z,24.50
2023-03-04T18:50:26.858Z,21.90
2023-03-04T18:53:31.065Z,20.60
2023-03-04T18:56:39.851Z,15.37
2023-03-04T18:59:47.572Z,14.20
2023-03-04T19:02:55.469Z,18.00
2023-03-04T19:06:00.221Z,19.00
2023-03-04T19:09:09.332Z,19.90
2023-03-04T19:12:12.493Z,15.03
2023-03-04T19:15:16.281Z,18.97
2023-03-04T19:18:19.443Z,21.93
2023-03-04T19:21:23.779Z,25.57
2023-03-04T19:24:26.803Z,24.57
2023-03-04T19:27:29.787Z,19.60
2023-03-04T19:30:33.065Z,20.43
2023-03-04T19:33:37.332Z,21.50
2023-03-04T19:36:41.647Z,20.17
2023-03-04T19:39:44.901Z,20.13
2023-03-04T19:42:48.001Z,13.47
2023-03-04T19:45:56.287Z,15.67
2023-03-04T19:48:59.961Z,16.97
2023-03-04T19:52:04.365Z,19.60
2023-03-04T19:55:10.073Z,20.07
2023-03-04T19:58:13.420Z,28.33
2023-03-04T20:01:21.932Z,15.90
2023-03-04T20:04:25.367Z,17.13
2023-03-04T20:07:29.777Z,21.47
2023-03-04T20:10:36.548Z,15.27
2023-03-04T20:13:40.289Z,19.57
2023-03-04T20:16:43.501Z,23.23
2023-03-04T20:19:48.047Z,22.47
2023-03-04T20:22:52.393Z,24.77
2023-03-04T20:25:56.793Z,15.30
2023-03-04T20:29:00.035Z,23.53
2023-03-04T20:32:03.645Z,17.80
2023-03-04T20:35:08.000Z,9.53
2023-03-04T20:38:12.648Z,18.57
2023-03-04T20:41:16.652Z,14.37
2023-03-04T20:44:19.733Z,9.13
2023-03-04T20:47:22.933Z,8.33
2023-03-04T20:50:26.664Z,8.73
2023-03-04T20:53:30.981Z,10.17
2023-03-04T20:56:35.031Z,12.43
2023-03-04T20:59:40.464Z,15.77
2023-03-04T21:02:43.432Z,8.93
2023-03-04T21:05:46.424Z,9.27
2023-03-04T21:08:50.790Z,10.60
2023-03-04T21:11:54.651Z,11.27
2023-03-04T21:14:57.785Z,5.73
2023-03-04T21:18:00.878Z,6.20
2023-03-04T21:21:10.747Z,12.00
2023-03-04T21:24:18.377Z,6.50
2023-03-04T21:27:21.588Z,7.17
2023-03-04T21:30:24.663Z,7.17
2023-03-04T21:33:36.445Z,5.00
2023-03-04T21:36:39.451Z,8.00
2023-03-04T21:42:51.748Z,6.40
2023-03-04T21:45:56.834Z,7.40
2023-03-04T21:48:59.942Z,10.80
2023-03-04T21:52:03.667Z,9.03
2023-03-04T21:55:09.409Z,4.93
2023-03-04T21:58:12.410Z,6.40
2023-03-04T22:01:18.551Z,8.77
2023-03-04T22:04:21.630Z,7.77
2023-03-04T22:07:24.688Z,7.40
2023-03-04T22:10:28.985Z,4.93
2023-03-04T22:13:32.052Z,7.03
2023-03-04T22:16:39.897Z,7.47
2023-03-04T22:19:51.790Z,7.70
2023-03-04T22:22:54.774Z,8.70
2023-03-04T22:26:03.368Z,7.53
2023-03-04T22:29:07.553Z,8.77
2023-03-04T22:32:10.543Z,9.90
2023-03-04T22:35:13.873Z,9.50
2023-03-04T22:38:17.288Z,13.67
2023-03-04T22:41:23.062Z,7.60
2023-03-04T22:44:26.442Z,12.67
2023-03-04T22:47:29.415Z,13.27
2023-03-04T22:50:32.518Z,11.53
2023-03-04T22:53:36.036Z,14.47
2023-03-04T22:56:40.425Z,14.67
2023-03-04T22:59:43.498Z,13.50
2023-03-04T23:02:46.944Z,13.20
2023-03-04T23:05:50.000Z,14.60
2023-03-04T23:08:53.607Z,13.43
2023-03-04T23:11:58.001Z,14.43
2023-03-04T23:15:01.118Z,17.23
2023-03-04T23:18:05.103Z,13.30
2023-03-04T23:21:08.522Z,13.07
2023-03-04T23:24:13.288Z,15.70
2023-03-04T23:27:17.645Z,16.67
2023-03-04T23:30:20.684Z,18.80
2023-03-04T23:33:23.676Z,11.97
2023-03-04T23:36:29.805Z,11.80
2023-03-04T23:39:33.201Z,16.00
2023-03-04T23:42:39.742Z,14.60
2023-03-04T23:45:42.816Z,15.37
2023-03-04T23:48:46.643Z,23.40
2023-03-04T23:51:49.680Z,14.90
2023-03-04T23:54:52.770Z,20.10
2023-03-04T23:57:57.080Z,16.47
